createdAt,value
2023-02-03T00:02:25.724Z,5.3
2023-02-03T00:07:25.586Z,5.2
2023-02-03T00:12:25.608Z,5.1
2023-02-03T00:17:25.691Z,5.1
2023-02-03T00:22:25.628Z,5.1
2023-02-03T00:27:25.767Z,4.9
2023-02-03T00:32:25.772Z,4.9
2023-02-03T00:37:25.621Z,5
2023-02-03T00:42:25.655Z,4.9
2023-02-03T00:47:25.637Z,4.9
2023-02-03T00:52:25.594Z,4.9
2023-02-03T00:57:25.851Z,4.9
2023-02-03T01:02:25.870Z,4.9
2023-02-03T01:07:25.733Z,4.9
2023-02-03T01:12:25.880Z,5
2023-02-03T01:17:27.258Z,5.1
2023-02-03T01:22:27.473Z,5
2023-02-03T01:27:26.767Z,4.9
2023-02-03T01:32:25.673Z,4.9
2023-02-03T01:37:25.605Z,5.1
2023-02-03T01:42:25.602Z,5.1
2023-02-03T01:47:25.651Z,5.1
2023-02-03T01:52:25.864Z,5.1
2023-02-03T01:57:25.693Z,5.2
2023-02-03T02:02:25.707Z,5.2
2023-02-03T02:07:25.654Z,5.3
2023-02-03T02:12:25.589Z,5.3
2023-02-03T02:17:25.729Z,5.3
2023-02-03T02:22:25.633Z,5.3
2023-02-03T02:27:25.633Z,5.3
2023-02-03T02:32:25.663Z,5.4
2023-02-03T02:37:25.694Z,5.4
2023-02-03T02:42:25.654Z,5.4
2023-02-03T02:47:25.609Z,5.4
2023-02-03T02:52:26.197Z,5.5
2023-02-03T02:57:25.587Z,5.5
2023-02-03T03:02:26.136Z,5.4
2023-02-03T03:07:25.655Z,5.4
2023-02-03T03:12:25.580Z,5.4
2023-02-03T03:17:25.619Z,5.3
2023-02-03T03:22:25.633Z,5.3
2023-02-03T03:27:25.616Z,5.4
2023-02-03T03:32:25.607Z,5.4
2023-02-03T03:37:25.613Z,5.4
2023-02-03T03:42:25.584Z,5.4
2023-02-03T03:47:25.647Z,5.5
2023-02-03T03:52:25.712Z,5.4
2023-02-03T03:57:25.601Z,5.4
2023-02-03T04:02:25.728Z,5.6
2023-02-03T04:07:25.644Z,5.6
2023-02-03T04:12:25.707Z,5.7
2023-02-03T04:17:25.701Z,5.6
2023-02-03T04:22:25.629Z,5.7
2023-02-03T04:27:25.630Z,5.7
2023-02-03T04:32:25.616Z,5.8
2023-02-03T04:37:25.577Z,5.8
2023-02-03T04:42:25.720Z,5.8
2023-02-03T04:47:25.625Z,5.7
2023-02-03T04:52:25.601Z,5.8
2023-02-03T04:57:25.669Z,5.8
2023-02-03T05:02:25.594Z,5.8
2023-02-03T05:07:25.607Z,5.8
2023-02-03T05:12:25.668Z,5.8
2023-02-03T05:17:25.703Z,5.8
2023-02-03T05:22:25.656Z,5.8
2023-02-03T05:27:25.711Z,5.9
2023-02-03T05:32:25.669Z,5.9
2023-02-03T05:37:25.646Z,5.9
2023-02-03T05:42:25.619Z,5.9
2023-02-03T05:47:25.696Z,5.9
2023-02-03T05:52:25.678Z,5.9
2023-02-03T05:57:25.662Z,5.9
2023-02-03T06:02:25.654Z,5.9
2023-02-03T06:07:25.671Z,5.8
2023-02-03T06:12:28.188Z,5.9
2023-02-03T06:17:25.703Z,5.8
2023-02-03T06:22:25.664Z,5.8
2023-02-03T06:27:25.702Z,5.8
2023-02-03T06:32:25.739Z,5.7
2023-02-03T06:37:25.683Z,5.8
2023-02-03T06:42:25.666Z,5.8
2023-02-03T06:47:25.682Z,5.8
2023-02-03T06:52:25.629Z,5.8
2023-02-03T06:57:25.642Z,5.8
2023-02-03T07:02:25.747Z,5.9
2023-02-03T07:07:25.713Z,5.9
2023-02-03T07:12:25.931Z,6.1
2023-02-03T07:17:26.318Z,6.1
2023-02-03T07:22:25.725Z,6.1
2023-02-03T07:27:25.789Z,6.1
2023-02-03T07:32:25.676Z,6.1
2023-02-03T07:37:25.697Z,6.1
2023-02-03T07:42:25.686Z,6.1
2023-02-03T07:47:25.599Z,6.1
2023-02-03T07:52:25.673Z,5.9
2023-02-03T07:57:25.680Z,5.9
2023-02-03T08:02:25.751Z,5.9
2023-02-03T08:07:25.750Z,5.9
2023-02-03T08:12:25.635Z,5.9
2023-02-03T08:17:25.723Z,6
2023-02-03T08:22:25.676Z,5.9
2023-02-03T08:27:25.623Z,5.9
2023-02-03T08:32:25.701Z,5.9
2023-02-03T08:37:26.917Z,5.9
2023-02-03T08:42:25.685Z,5.9
2023-02-03T08:47:25.749Z,6
2023-02-03T08:52:25.671Z,6.1
2023-02-03T08:57:25.681Z,6.1
2023-02-03T09:02:25.655Z,6.3
2023-02-03T09:07:25.666Z,6.2
2023-02-03T09:12:25.687Z,6.3
2023-02-03T09:17:25.782Z,6.4
2023-02-03T09:22:25.670Z,6.4
2023-02-03T09:27:25.647Z,6.4
2023-02-03T09:32:25.680Z,6.5
2023-02-03T09:37:25.893Z,6.4
2023-02-03T09:42:25.691Z,6.4
2023-02-03T09:47:25.736Z,6.6
2023-02-03T09:52:25.676Z,6.6
2023-02-03T09:57:25.734Z,6.6
2023-02-03T10:02:25.720Z,6.6
2023-02-03T10:07:25.938Z,6.6
2023-02-03T10:12:25.626Z,6.7
2023-02-03T10:17:25.690Z,6.7
2023-02-03T10:22:25.783Z,6.7
2023-02-03T10:27:25.701Z,6.8
2023-02-03T10:32:25.703Z,6.8
2023-02-03T10:37:25.625Z,6.8
2023-02-03T10:42:25.703Z,6.8
2023-02-03T11:17:25.752Z,7.1
2023-02-03T11:22:25.861Z,7.1
2023-02-03T11:27:25.699Z,7.1
2023-02-03T11:32:25.716Z,7
2023-02-03T11:37:25.637Z,7
2023-02-03T11:42:25.751Z,7.1
2023-02-03T11:47:25.762Z,7
2023-02-03T11:52:25.716Z,7.1
2023-02-03T11:57:25.717Z,6.9
2023-02-03T12:02:25.682Z,6.9
2023-02-03T12:07:25.695Z,6.9
2023-02-03T12:12:25.691Z,6.9
2023-02-03T12:17:25.747Z,7
2023-02-03T12:22:25.678Z,7.1
2023-02-03T12:27:25.651Z,7.1
2023-02-03T12:32:25.636Z,7.1
2023-02-03T12:37:25.672Z,7.1
2023-02-03T12:42:25.698Z,7.1
2023-02-03T12:47:25.916Z,7.1
2023-02-03T12:52:25.641Z,7.2
2023-02-03T12:57:25.704Z,7.1
2023-02-03T13:02:25.744Z,7.1
2023-02-03T13:07:25.733Z,7.1
2023-02-03T13:12:25.663Z,7
2023-02-03T13:17:25.701Z,6.9
2023-02-03T13:22:26.176Z,6.9
2023-02-03T13:27:25.709Z,6.9
2023-02-03T13:32:25.835Z,6.9
2023-02-03T13:37:25.669Z,6.9
2023-02-03T13:42:25.678Z,6.9
2023-02-03T13:47:25.731Z,6.9
2023-02-03T13:52:25.634Z,6.9
2023-02-03T13:57:25.654Z,6.9
2023-02-03T14:02:25.782Z,7
2023-02-03T14:07:25.698Z,7
2023-02-03T14:12:25.657Z,7
2023-02-03T14:17:25.808Z,7.1
2023-02-03T14:22:25.742Z,7.1
2023-02-03T14:27:25.662Z,6.9
2023-02-03T14:42:25.830Z,6.4
2023-02-03T14:47:26.187Z,6.5
2023-02-03T14:52:26.017Z,6.4
2023-02-03T14:57:25.742Z,6.4
2023-02-03T15:02:25.743Z,6.4
2023-02-03T15:07:26.066Z,6.4
2023-02-03T15:17:36.132Z,6.4
2023-02-03T15:22:25.703Z,6.4
2023-02-03T15:27:25.678Z,6.5
2023-02-03T15:32:28.659Z,6.5
2023-02-03T15:37:26.252Z,6.4
2023-02-03T15:42:25.818Z,6.3
2023-02-03T15:47:25.771Z,6.3
2023-02-03T15:52:25.701Z,6.3
2023-02-03T15:57:25.747Z,6.3
2023-02-03T16:02:26.303Z,6.3
2023-02-03T16:07:25.743Z,6.3
2023-02-03T16:12:25.806Z,6.3
2023-02-03T16:18:07.933Z,6.3
2023-02-03T16:22:28.862Z,6.2
2023-02-03T16:27:26.321Z,6.2
2023-02-03T16:37:26.022Z,6.3
2023-02-03T16:42:25.999Z,6.3
2023-02-03T16:47:25.905Z,6.4
2023-02-03T16:52:25.901Z,6.3
2023-02-03T16:57:25.749Z,6.4
2023-02-03T17:02:25.795Z,6.4
2023-02-03T17:07:25.764Z,6.3
2023-02-03T17:12:25.768Z,6.4
2023-02-03T17:17:25.800Z,6.5
2023-02-03T17:22:25.777Z,6.4
2023-02-03T17:27:25.681Z,6.6
2023-02-03T17:32:25.698Z,6.5
2023-02-03T17:37:25.981Z,6.5
2023-02-03T17:57:25.842Z,6.6
2023-02-03T18:02:25.737Z,6.7
2023-02-03T18:07:25.674Z,6.6
2023-02-03T18:12:25.714Z,6.8
2023-02-03T18:17:25.752Z,6.7
2023-02-03T18:22:25.739Z,6.7
2023-02-03T18:27:25.775Z,6.7
2023-02-03T18:32:25.690Z,6.7
2023-02-03T18:37:25.847Z,6.8
2023-02-03T18:42:25.706Z,6.8
2023-02-03T18:47:25.728Z,6.8
2023-02-03T18:52:25.788Z,6.7
2023-02-03T18:57:25.693Z,6.7
2023-02-03T19:02:25.805Z,6.8
2023-02-03T19:07:25.755Z,6.8
2023-02-03T19:12:25.852Z,6.9
2023-02-03T19:17:25.795Z,6.9
2023-02-03T19:22:25.702Z,6.9
2023-02-03T19:27:25.792Z,6.8
2023-02-03T19:32:25.787Z,7
2023-02-03T19:37:25.750Z,6.9
2023-02-03T19:42:25.688Z,6.9
2023-02-03T19:47:25.742Z,6.9
2023-02-03T19:52:26.512Z,7
2023-02-03T19:57:25.759Z,6.9
2023-02-03T20:02:25.750Z,7
2023-02-03T20:12:30.902Z,6.9
2023-02-03T20:17:25.772Z,6.9
2023-02-03T20:22:25.736Z,6.9
2023-02-03T20:27:25.788Z,6.9
2023-02-03T20:32:25.731Z,7.1
2023-02-03T20:37:25.691Z,7.3
2023-02-03T20:42:25.877Z,7.1
2023-02-03T20:47:25.767Z,7.3
2023-02-03T20:52:25.727Z,7.2
2023-02-03T20:57:25.755Z,7.2
2023-02-03T21:02:25.817Z,7.1
2023-02-03T21:07:25.779Z,7.1
2023-02-03T21:12:26.128Z,7.2
2023-02-03T21:17:25.896Z,7
2023-02-03T21:22:25.734Z,7
2023-02-03T21:27:25.858Z,6.9
2023-02-03T21:32:25.779Z,7
2023-02-03T21:37:25.863Z,7
2023-02-03T21:42:25.815Z,6.9
2023-02-03T21:47:25.814Z,6.7
2023-02-03T21:52:25.751Z,6.8
2023-02-03T21:57:26.546Z,6.9
2023-02-03T22:02:26.512Z,6.9
2023-02-03T22:07:25.944Z,6.8
2023-02-03T22:12:25.931Z,6.8
2023-02-03T22:17:26.137Z,6.8
2023-02-03T22:22:25.849Z,6.8
2023-02-03T22:27:25.816Z,6.7
2023-02-03T22:32:25.858Z,6.6
2023-02-03T22:37:25.739Z,6.4
2023-02-03T22:42:25.802Z,6.6
2023-02-03T22:47:25.789Z,6.4
2023-02-03T22:52:25.784Z,6.5
2023-02-03T22:57:25.708Z,6.4
2023-02-03T23:02:25.809Z,6.4
2023-02-03T23:07:25.797Z,6.2
2023-02-03T23:12:25.954Z,6.3
2023-02-03T23:17:25.831Z,6.1
2023-02-03T23:22:25.856Z,6.1
2023-02-03T23:27:25.784Z,6.1
2023-02-03T23:32:25.809Z,6.1
2023-02-03T23:37:25.772Z,6
2023-02-03T23:42:25.770Z,6.1
2023-02-03T23:47:25.837Z,6
2023-02-03T23:52:25.911Z,6
2023-02-03T23:57:25.731Z,5.9
